createdAt,value
2023-04-27T00:00:00.000Z,8.95
2023-04-27T00:15:00.000Z,9.12
2023-04-27T00:30:00.000Z,11.59
2023-04-27T00:45:00.000Z,9.6
2023-04-27T01:00:00.000Z,9.39
2023-04-27T01:15:00.000Z,10.35
2023-04-27T01:30:00.000Z,10.68
2023-04-27T01:45:00.000Z,14.08
2023-04-27T02:00:00.000Z,12.73
2023-04-27T02:15:00.000Z,13.92
2023-04-27T02:30:00.000Z,10.35
2023-04-27T02:45:00.000Z,12.22
2023-04-27T03:00:00.000Z,11.06
2023-04-27T03:15:00.000Z,10.95
2023-04-27T03:30:00.000Z,12.44
2023-04-27T03:45:00.000Z,10.47
2023-04-27T04:00:00.000Z,12.68
2023-04-27T04:15:00.000Z,13.36
2023-04-27T04:30:00.000Z,11.45
2023-04-27T04:45:00.000Z,11.01
2023-04-27T05:00:00.000Z,14.8
2023-04-27T05:15:00.000Z,18.62
2023-04-27T05:30:00.000Z,13.14
2023-04-27T05:45:00.000Z,9.27
2023-04-27T06:00:00.000Z,9.48
2023-04-27T06:15:00.000Z,10.13
2023-04-27T06:30:00.000Z,9.75
2023-04-27T06:45:00.000Z,13.14
2023-04-27T07:00:00.000Z,12.19
2023-04-27T07:15:00.000Z,10.4
2023-04-27T07:30:00.000Z,9.49
2023-04-27T07:45:00.000Z,12.45
2023-04-27T08:00:00.000Z,12.72
2023-04-27T08:15:00.000Z,11.52
2023-04-27T08:30:00.000Z,12.95
2023-04-27T08:45:00.000Z,10.66
2023-04-27T09:00:00.000Z,9.39
2023-04-27T09:15:00.000Z,9.16
2023-04-27T09:30:00.000Z,7.74
2023-04-27T09:45:00.000Z,7.41
2023-04-27T10:00:00.000Z,7.44
2023-04-27T10:15:00.000Z,8.79
2023-04-27T10:30:00.000Z,7.15
2023-04-27T10:45:00.000Z,7.16
2023-04-27T11:00:00.000Z,6.99
2023-04-27T11:15:00.000Z,7.05
2023-04-27T11:30:00.000Z,7.07
2023-04-27T11:45:00.000Z,8.64
2023-04-27T12:00:00.000Z,6.96
2023-04-27T12:15:00.000Z,6.61
2023-04-27T12:30:00.000Z,6.6
2023-04-27T12:45:00.000Z,5.98
2023-04-27T13:00:00.000Z,5.41
2023-04-27T13:15:00.000Z,4.76
2023-04-27T13:30:00.000Z,8.49
2023-04-27T13:45:00.000Z,5.04
2023-04-27T14:00:00.000Z,4.96
2023-04-27T14:15:00.000Z,4.98
2023-04-27T14:30:00.000Z,4.68
2023-04-27T14:45:00.000Z,5.02
2023-04-27T15:00:00.000Z,11.75
2023-04-27T15:15:00.000Z,13.69
2023-04-27T15:30:00.000Z,9.87
2023-04-27T15:45:00.000Z,7.78
2023-04-27T16:00:00.000Z,7.72
2023-04-27T16:15:00.000Z,4.18
2023-04-27T16:30:00.000Z,7.07
2023-04-27T16:45:00.000Z,6.75
2023-04-27T17:00:00.000Z,3.79
2023-04-27T17:15:00.000Z,4.69
2023-04-27T17:30:00.000Z,4.78
2023-04-27T17:45:00.000Z,4.93
2023-04-27T18:00:00.000Z,6.36
2023-04-27T18:15:00.000Z,8.59
2023-04-27T18:30:00.000Z,9.72
2023-04-27T18:45:00.000Z,9.33
2023-04-27T19:00:00.000Z,8.14
2023-04-27T19:15:00.000Z,7.35
2023-04-27T19:30:00.000Z,7.74
2023-04-27T19:45:00.000Z,8.2
2023-04-27T20:00:00.000Z,10.04
2023-04-27T20:15:00.000Z,9.01
2023-04-27T20:30:00.000Z,10.53
2023-04-27T20:45:00.000Z,10.72
2023-04-27T21:00:00.000Z,11.2
2023-04-27T21:15:00.000Z,10.89
2023-04-27T21:30:00.000Z,10.2
2023-04-27T21:45:00.000Z,9.61
2023-04-27T22:00:00.000Z,10.07
2023-04-27T22:15:00.000Z,9.53
2023-04-27T22:30:00.000Z,9.45
2023-04-27T22:45:00.000Z,9.84
2023-04-27T23:00:00.000Z,9.71
2023-04-27T23:15:00.000Z,10.64
2023-04-27T23:30:00.000Z,9.85
2023-04-27T23:45:00.000Z,9.41
